sensor_id;sensor_type;location;lat;lon;timestamp;P1;durP1;ratioP1;P2;durP2;ratioP2
2023;SDS011;1016;48.770;9.154;2022-07-23T00:01:29;16.43;;;4.90;;
2023;SDS011;1016;48.770;9.154;2022-07-23T00:03:54;17.93;;;5.80;;
2023;SDS011;1016;48.770;9.154;2022-07-23T00:06:21;18.00;;;5.10;;
2023;SDS011;1016;48.770;9.154;2022-07-23T00:08:48;17.53;;;5.57;;
2023;SDS011;1016;48.770;9.154;2022-07-23T00:11:13;16.60;;;5.50;;
2023;SDS011;1016;48.770;9.154;2022-07-23T00:13:39;16.20;;;4.90;;
2023;SDS011;1016;48.770;9.154;2022-07-23T00:16:05;17.40;;;5.53;;
2023;SDS011;1016;48.770;9.154;2022-07-23T00:18:30;18.47;;;4.87;;
2023;SDS011;1016;48.770;9.154;2022-07-23T00:20:56;16.60;;;4.80;;
2023;SDS011;1016;48.770;9.154;2022-07-23T00:23:21;16.67;;;4.80;;
2023;SDS011;1016;48.770;9.154;2022-07-23T00:25:47;16.13;;;4.93;;
2023;SDS011;1016;48.770;9.154;2022-07-23T00:28:13;16.17;;;4.90;;
2023;SDS011;1016;48.770;9.154;2022-07-23T00:30:38;18.20;;;5.17;;
2023;SDS011;1016;48.770;9.154;2022-07-23T00:33:05;16.50;;;4.77;;
2023;SDS011;1016;48.770;9.154;2022-07-23T00:35:33;17.30;;;5.00;;
2023;SDS011;1016;48.770;9.154;2022-07-23T00:38:01;16.67;;;4.67;;
2023;SDS011;1016;48.770;9.154;2022-07-23T00:40:29;17.08;;;4.70;;
2023;SDS011;1016;48.770;9.154;2022-07-23T00:42:55;17.00;;;4.80;;
2023;SDS011;1016;48.770;9.154;2022-07-23T00:45:21;16.53;;;4.90;;
2023;SDS011;1016;48.770;9.154;2022-07-23T00:47:47;17.23;;;4.83;;
2023;SDS011;1016;48.770;9.154;2022-07-23T00:50:13;17.40;;;5.23;;
2023;SDS011;1016;48.770;9.154;2022-07-23T00:52:39;15.37;;;4.57;;
2023;SDS011;1016;48.770;9.154;2022-07-23T00:55:05;18.77;;;4.80;;
2023;SDS011;1016;48.770;9.154;2022-07-23T00:57:33;16.50;;;4.68;;
2023;SDS011;1016;48.770;9.154;2022-07-23T00:59:58;15.90;;;5.10;;
2023;SDS011;1016;48.770;9.154;2022-07-23T01:02:25;15.90;;;5.00;;
2023;SDS011;1016;48.770;9.154;2022-07-23T01:04:50;16.07;;;5.40;;
2023;SDS011;1016;48.770;9.154;2022-07-23T01:07:16;17.27;;;5.10;;
2023;SDS011;1016;48.770;9.154;2022-07-23T01:09:43;15.67;;;4.97;;
2023;SDS011;1016;48.770;9.154;2022-07-23T01:12:10;16.13;;;4.50;;
2023;SDS011;1016;48.770;9.154;2022-07-23T01:14:35;16.50;;;4.30;;
2023;SDS011;1016;48.770;9.154;2022-07-23T01:17:01;15.87;;;4.80;;
2023;SDS011;1016;48.770;9.154;2022-07-23T01:19:26;15.77;;;4.60;;
2023;SDS011;1016;48.770;9.154;2022-07-23T01:21:53;17.43;;;4.90;;
2023;SDS011;1016;48.770;9.154;2022-07-23T01:24:21;17.00;;;5.13;;
2023;SDS011;1016;48.770;9.154;2022-07-23T01:26:47;15.43;;;4.90;;
2023;SDS011;1016;48.770;9.154;2022-07-23T01:29:13;17.38;;;4.80;;
2023;SDS011;1016;48.770;9.154;2022-07-23T01:31:40;16.00;;;4.70;;
2023;SDS011;1016;48.770;9.154;2022-07-23T01:34:06;17.58;;;4.88;;
2023;SDS011;1016;48.770;9.154;2022-07-23T01:36:35;15.40;;;4.93;;
2023;SDS011;1016;48.770;9.154;2022-07-23T01:39:02;18.13;;;5.07;;
2023;SDS011;1016;48.770;9.154;2022-07-23T01:41:28;15.70;;;4.97;;
2023;SDS011;1016;48.770;9.154;2022-07-23T01:43:54;15.95;;;4.75;;
2023;SDS011;1016;48.770;9.154;2022-07-23T01:46:19;16.85;;;5.22;;
2023;SDS011;1016;48.770;9.154;2022-07-23T01:48:45;16.40;;;5.07;;
2023;SDS011;1016;48.770;9.154;2022-07-23T01:51:10;16.67;;;5.10;;
2023;SDS011;1016;48.770;9.154;2022-07-23T01:53:36;16.80;;;5.27;;
2023;SDS011;1016;48.770;9.154;2022-07-23T01:56:02;15.80;;;4.97;;
2023;SDS011;1016;48.770;9.154;2022-07-23T01:58:28;16.90;;;5.00;;
2023;SDS011;1016;48.770;9.154;2022-07-23T02:00:54;18.20;;;5.20;;
2023;SDS011;1016;48.770;9.154;2022-07-23T02:03:20;17.52;;;5.28;;
2023;SDS011;1016;48.770;9.154;2022-07-23T02:05:46;16.20;;;5.30;;
2023;SDS011;1016;48.770;9.154;2022-07-23T02:08:11;16.50;;;5.20;;
2023;SDS011;1016;48.770;9.154;2022-07-23T02:10:37;17.37;;;5.30;;
2023;SDS011;1016;48.770;9.154;2022-07-23T02:13:03;16.35;;;5.00;;
2023;SDS011;1016;48.770;9.154;2022-07-23T02:15:28;17.30;;;5.43;;
2023;SDS011;1016;48.770;9.154;2022-07-23T02:17:54;16.70;;;5.20;;
2023;SDS011;1016;48.770;9.154;2022-07-23T02:20:20;15.75;;;4.78;;
2023;SDS011;1016;48.770;9.154;2022-07-23T02:22:46;17.10;;;5.10;;
2023;SDS011;1016;48.770;9.154;2022-07-23T02:25:12;17.77;;;5.10;;
2023;SDS011;1016;48.770;9.154;2022-07-23T02:27:37;17.00;;;5.05;;
2023;SDS011;1016;48.770;9.154;2022-07-23T02:30:03;16.40;;;5.28;;
2023;SDS011;1016;48.770;9.154;2022-07-23T02:32:29;16.80;;;5.15;;
2023;SDS011;1016;48.770;9.154;2022-07-23T02:34:55;16.47;;;5.20;;
2023;SDS011;1016;48.770;9.154;2022-07-23T02:37:20;16.40;;;5.60;;
2023;SDS011;1016;48.770;9.154;2022-07-23T02:39:46;16.40;;;5.10;;
2023;SDS011;1016;48.770;9.154;2022-07-23T02:42:13;16.63;;;5.50;;
2023;SDS011;1016;48.770;9.154;2022-07-23T02:44:39;16.80;;;5.30;;
2023;SDS011;1016;48.770;9.154;2022-07-23T02:47:04;16.30;;;4.97;;
2023;SDS011;1016;48.770;9.154;2022-07-23T02:49:30;16.52;;;5.00;;
2023;SDS011;1016;48.770;9.154;2022-07-23T02:51:56;16.40;;;5.10;;
2023;SDS011;1016;48.770;9.154;2022-07-23T02:54:21;15.88;;;5.00;;
2023;SDS011;1016;48.770;9.154;2022-07-23T02:56:47;16.60;;;5.40;;
2023;SDS011;1016;48.770;9.154;2022-07-23T02:59:12;15.57;;;4.60;;
2023;SDS011;1016;48.770;9.154;2022-07-23T03:01:38;16.73;;;4.90;;
2023;SDS011;1016;48.770;9.154;2022-07-23T03:04:03;15.77;;;4.30;;
2023;SDS011;1016;48.770;9.154;2022-07-23T03:06:29;15.23;;;4.73;;
2023;SDS011;1016;48.770;9.154;2022-07-23T03:08:55;15.60;;;4.97;;
2023;SDS011;1016;48.770;9.154;2022-07-23T03:11:21;15.57;;;4.67;;
2023;SDS011;1016;48.770;9.154;2022-07-23T03:13:46;16.50;;;5.00;;
2023;SDS011;1016;48.770;9.154;2022-07-23T03:16:12;17.23;;;5.37;;
2023;SDS011;1016;48.770;9.154;2022-07-23T03:18:37;17.80;;;5.57;;
2023;SDS011;1016;48.770;9.154;2022-07-23T03:21:03;17.13;;;5.07;;
2023;SDS011;1016;48.770;9.154;2022-07-23T03:23:28;17.17;;;5.23;;
2023;SDS011;1016;48.770;9.154;2022-07-23T03:25:54;15.77;;;4.93;;
2023;SDS011;1016;48.770;9.154;2022-07-23T03:28:19;16.90;;;5.17;;
2023;SDS011;1016;48.770;9.154;2022-07-23T03:30:45;15.40;;;4.73;;
2023;SDS011;1016;48.770;9.154;2022-07-23T03:33:15;16.03;;;5.07;;
2023;SDS011;1016;48.770;9.154;2022-07-23T03:35:45;17.10;;;5.50;;
2023;SDS011;1016;48.770;9.154;2022-07-23T03:38:11;16.57;;;5.20;;
2023;SDS011;1016;48.770;9.154;2022-07-23T03:40:38;15.83;;;4.67;;
2023;SDS011;1016;48.770;9.154;2022-07-23T03:43:03;16.53;;;5.40;;
2023;SDS011;1016;48.770;9.154;2022-07-23T03:45:30;16.60;;;5.30;;
2023;SDS011;1016;48.770;9.154;2022-07-23T03:47:56;16.47;;;5.23;;
2023;SDS011;1016;48.770;9.154;2022-07-23T03:50:21;17.03;;;5.53;;
2023;SDS011;1016;48.770;9.154;2022-07-23T03:52:47;18.80;;;5.30;;
2023;SDS011;1016;48.770;9.154;2022-07-23T03:55:13;17.77;;;5.90;;
2023;SDS011;1016;48.770;9.154;2022-07-23T03:57:38;17.42;;;5.70;;
2023;SDS011;1016;48.770;9.154;2022-07-23T04:00:05;16.85;;;5.70;;
2023;SDS011;1016;48.770;9.154;2022-07-23T04:02:33;17.85;;;5.70;;
2023;SDS011;1016;48.770;9.154;2022-07-23T04:04:58;17.57;;;5.67;;
2023;SDS011;1016;48.770;9.154;2022-07-23T04:07:25;17.50;;;5.82;;
2023;SDS011;1016;48.770;9.154;2022-07-23T04:09:51;16.07;;;5.40;;
2023;SDS011;1016;48.770;9.154;2022-07-23T04:12:16;16.50;;;5.70;;
2023;SDS011;1016;48.770;9.154;2022-07-23T04:14:42;16.57;;;5.40;;
2023;SDS011;1016;48.770;9.154;2022-07-23T04:17:07;16.42;;;5.60;;
2023;SDS011;1016;48.770;9.154;2022-07-23T04:19:33;16.80;;;5.80;;
2023;SDS011;1016;48.770;9.154;2022-07-23T04:22:04;16.90;;;5.80;;
2023;SDS011;1016;48.770;9.154;2022-07-23T04:24:30;16.80;;;5.30;;
2023;SDS011;1016;48.770;9.154;2022-07-23T04:26:56;16.30;;;5.60;;
2023;SDS011;1016;48.770;9.154;2022-07-23T04:29:21;16.80;;;5.77;;
2023;SDS011;1016;48.770;9.154;2022-07-23T04:31:47;17.40;;;5.50;;
2023;SDS011;1016;48.770;9.154;2022-07-23T04:34:12;17.48;;;5.90;;
2023;SDS011;1016;48.770;9.154;2022-07-23T04:36:38;16.13;;;5.63;;
2023;SDS011;1016;48.770;9.154;2022-07-23T04:39:03;16.87;;;5.80;;
2023;SDS011;1016;48.770;9.154;2022-07-23T04:41:29;17.67;;;6.03;;
2023;SDS011;1016;48.770;9.154;2022-07-23T04:43:54;17.08;;;5.75;;
2023;SDS011;1016;48.770;9.154;2022-07-23T04:46:20;16.07;;;5.50;;
2023;SDS011;1016;48.770;9.154;2022-07-23T04:48:45;17.50;;;5.60;;
2023;SDS011;1016;48.770;9.154;2022-07-23T04:51:11;17.58;;;5.70;;
2023;SDS011;1016;48.770;9.154;2022-07-23T04:53:37;16.80;;;5.45;;
2023;SDS011;1016;48.770;9.154;2022-07-23T04:56:03;16.55;;;5.63;;
2023;SDS011;1016;48.770;9.154;2022-07-23T04:58:29;17.00;;;6.13;;
2023;SDS011;1016;48.770;9.154;2022-07-23T05:00:56;16.52;;;5.45;;
2023;SDS011;1016;48.770;9.154;2022-07-23T05:03:23;17.17;;;5.72;;
2023;SDS011;1016;48.770;9.154;2022-07-23T05:05:48;17.40;;;5.60;;
2023;SDS011;1016;48.770;9.154;2022-07-23T05:08:14;16.80;;;5.60;;
2023;SDS011;1016;48.770;9.154;2022-07-23T05:10:40;16.83;;;5.50;;
2023;SDS011;1016;48.770;9.154;2022-07-23T05:13:06;16.40;;;5.60;;
2023;SDS011;1016;48.770;9.154;2022-07-23T05:15:31;16.97;;;5.60;;
2023;SDS011;1016;48.770;9.154;2022-07-23T05:17:57;17.00;;;5.50;;
2023;SDS011;1016;48.770;9.154;2022-07-23T05:20:22;17.08;;;5.60;;
2023;SDS011;1016;48.770;9.154;2022-07-23T05:22:48;16.30;;;5.60;;
2023;SDS011;1016;48.770;9.154;2022-07-23T05:25:13;17.10;;;5.80;;
2023;SDS011;1016;48.770;9.154;2022-07-23T05:27:39;17.30;;;5.90;;
2023;SDS011;1016;48.770;9.154;2022-07-23T05:30:04;16.80;;;5.57;;
2023;SDS011;1016;48.770;9.154;2022-07-23T05:32:31;17.00;;;5.60;;
2023;SDS011;1016;48.770;9.154;2022-07-23T05:34:57;16.88;;;5.78;;
2023;SDS011;1016;48.770;9.154;2022-07-23T05:37:23;16.97;;;6.00;;
2023;SDS011;1016;48.770;9.154;2022-07-23T05:39:48;16.47;;;5.80;;
2023;SDS011;1016;48.770;9.154;2022-07-23T05:42:14;17.20;;;6.10;;
2023;SDS011;1016;48.770;9.154;2022-07-23T05:44:39;16.70;;;6.30;;
2023;SDS011;1016;48.770;9.154;2022-07-23T05:47:05;16.50;;;5.87;;
2023;SDS011;1016;48.770;9.154;2022-07-23T05:49:30;18.60;;;6.10;;
2023;SDS011;1016;48.770;9.154;2022-07-23T05:51:56;17.48;;;6.15;;
2023;SDS011;1016;48.770;9.154;2022-07-23T05:54:21;17.10;;;6.25;;
2023;SDS011;1016;48.770;9.154;2022-07-23T05:56:47;16.20;;;6.00;;
2023;SDS011;1016;48.770;9.154;2022-07-23T05:59:13;17.13;;;6.03;;
2023;SDS011;1016;48.770;9.154;2022-07-23T06:01:39;16.42;;;5.70;;
2023;SDS011;1016;48.770;9.154;2022-07-23T06:04:05;16.80;;;6.10;;
2023;SDS011;1016;48.770;9.154;2022-07-23T06:06:30;17.40;;;6.27;;
2023;SDS011;1016;48.770;9.154;2022-07-23T06:08:57;17.70;;;6.20;;
2023;SDS011;1016;48.770;9.154;2022-07-23T06:11:22;16.23;;;5.80;;
2023;SDS011;1016;48.770;9.154;2022-07-23T06:13:48;17.27;;;6.05;;
2023;SDS011;1016;48.770;9.154;2022-07-23T06:16:13;16.47;;;5.90;;
2023;SDS011;1016;48.770;9.154;2022-07-23T06:18:39;17.70;;;6.00;;
2023;SDS011;1016;48.770;9.154;2022-07-23T06:21:04;17.70;;;6.10;;
2023;SDS011;1016;48.770;9.154;2022-07-23T06:23:30;17.45;;;5.85;;
2023;SDS011;1016;48.770;9.154;2022-07-23T06:25:55;17.83;;;5.93;;
2023;SDS011;1016;48.770;9.154;2022-07-23T06:28:21;17.70;;;6.20;;
2023;SDS011;1016;48.770;9.154;2022-07-23T06:30:46;16.60;;;6.10;;
2023;SDS011;1016;48.770;9.154;2022-07-23T06:33:13;17.60;;;6.20;;
2023;SDS011;1016;48.770;9.154;2022-07-23T06:35:38;17.45;;;6.15;;
2023;SDS011;1016;48.770;9.154;2022-07-23T06:38:04;16.70;;;6.50;;
2023;SDS011;1016;48.770;9.154;2022-07-23T06:40:29;17.40;;;6.17;;
2023;SDS011;1016;48.770;9.154;2022-07-23T06:42:55;17.20;;;6.07;;
2023;SDS011;1016;48.770;9.154;2022-07-23T06:45:20;18.20;;;6.50;;
2023;SDS011;1016;48.770;9.154;2022-07-23T06:47:47;17.85;;;6.30;;
2023;SDS011;1016;48.770;9.154;2022-07-23T06:50:12;16.85;;;6.35;;
2023;SDS011;1016;48.770;9.154;2022-07-23T06:52:38;17.27;;;6.30;;
2023;SDS011;1016;48.770;9.154;2022-07-23T06:55:03;17.30;;;6.40;;
2023;SDS011;1016;48.770;9.154;2022-07-23T06:57:29;17.35;;;6.35;;
2023;SDS011;1016;48.770;9.154;2022-07-23T06:59:55;17.27;;;6.20;;
2023;SDS011;1016;48.770;9.154;2022-07-23T07:02:20;19.50;;;5.93;;
2023;SDS011;1016;48.770;9.154;2022-07-23T07:04:46;17.80;;;6.30;;
2023;SDS011;1016;48.770;9.154;2022-07-23T07:07:11;17.83;;;6.47;;
2023;SDS011;1016;48.770;9.154;2022-07-23T07:09:37;17.37;;;6.07;;
2023;SDS011;1016;48.770;9.154;2022-07-23T07:12:03;18.05;;;6.30;;
2023;SDS011;1016;48.770;9.154;2022-07-23T07:14:29;16.90;;;6.20;;
2023;SDS011;1016;48.770;9.154;2022-07-23T07:16:54;17.10;;;6.40;;
2023;SDS011;1016;48.770;9.154;2022-07-23T07:19:20;17.42;;;6.20;;
2023;SDS011;1016;48.770;9.154;2022-07-23T07:21:45;18.50;;;6.30;;
2023;SDS011;1016;48.770;9.154;2022-07-23T07:24:11;17.53;;;6.40;;
2023;SDS011;1016;48.770;9.154;2022-07-23T07:26:36;17.05;;;6.00;;
2023;SDS011;1016;48.770;9.154;2022-07-23T07:29:04;16.67;;;6.20;;
2023;SDS011;1016;48.770;9.154;2022-07-23T07:31:30;17.37;;;6.40;;
2023;SDS011;1016;48.770;9.154;2022-07-23T07:33:55;17.13;;;6.30;;
2023;SDS011;1016;48.770;9.154;2022-07-23T07:36:21;18.87;;;7.00;;
2023;SDS011;1016;48.770;9.154;2022-07-23T07:38:47;17.75;;;6.55;;
2023;SDS011;1016;48.770;9.154;2022-07-23T07:41:13;17.43;;;6.73;;
2023;SDS011;1016;48.770;9.154;2022-07-23T07:43:38;18.90;;;6.82;;
2023;SDS011;1016;48.770;9.154;2022-07-23T07:46:04;18.65;;;7.40;;
2023;SDS011;1016;48.770;9.154;2022-07-23T07:48:29;19.93;;;7.30;;
2023;SDS011;1016;48.770;9.154;2022-07-23T07:50:55;17.10;;;6.53;;
2023;SDS011;1016;48.770;9.154;2022-07-23T07:53:20;17.92;;;7.40;;
2023;SDS011;1016;48.770;9.154;2022-07-23T07:55:46;17.70;;;6.43;;
2023;SDS011;1016;48.770;9.154;2022-07-23T07:58:12;16.90;;;6.20;;
2023;SDS011;1016;48.770;9.154;2022-07-23T08:00:37;17.35;;;6.55;;
2023;SDS011;1016;48.770;9.154;2022-07-23T08:03:03;17.65;;;6.50;;
2023;SDS011;1016;48.770;9.154;2022-07-23T08:05:29;17.90;;;6.30;;
2023;SDS011;1016;48.770;9.154;2022-07-23T08:07:55;17.42;;;6.55;;
2023;SDS011;1016;48.770;9.154;2022-07-23T08:10:22;17.00;;;6.07;;
2023;SDS011;1016;48.770;9.154;2022-07-23T08:12:49;16.63;;;5.93;;
2023;SDS011;1016;48.770;9.154;2022-07-23T08:15:16;17.92;;;6.65;;
2023;SDS011;1016;48.770;9.154;2022-07-23T08:17:44;18.40;;;6.55;;
2023;SDS011;1016;48.770;9.154;2022-07-23T08:20:11;18.63;;;8.23;;
2023;SDS011;1016;48.770;9.154;2022-07-23T08:22:41;18.05;;;6.38;;
2023;SDS011;1016;48.770;9.154;2022-07-23T08:25:07;18.73;;;6.35;;
2023;SDS011;1016;48.770;9.154;2022-07-23T08:27:32;17.33;;;6.40;;
2023;SDS011;1016;48.770;9.154;2022-07-23T08:29:58;16.52;;;6.07;;
2023;SDS011;1016;48.770;9.154;2022-07-23T08:32:23;16.88;;;6.20;;
2023;SDS011;1016;48.770;9.154;2022-07-23T08:34:49;16.80;;;6.20;;
2023;SDS011;1016;48.770;9.154;2022-07-23T08:37:14;17.60;;;6.23;;
2023;SDS011;1016;48.770;9.154;2022-07-23T08:39:40;17.70;;;6.40;;
2023;SDS011;1016;48.770;9.154;2022-07-23T08:42:06;16.67;;;6.18;;
2023;SDS011;1016;48.770;9.154;2022-07-23T08:44:33;16.60;;;6.03;;
2023;SDS011;1016;48.770;9.154;2022-07-23T08:47:00;17.33;;;6.30;;
2023;SDS011;1016;48.770;9.154;2022-07-23T08:49:26;17.77;;;6.30;;
2023;SDS011;1016;48.770;9.154;2022-07-23T08:51:52;18.20;;;6.40;;
2023;SDS011;1016;48.770;9.154;2022-07-23T08:54:19;16.80;;;6.32;;
2023;SDS011;1016;48.770;9.154;2022-07-23T08:56:46;16.83;;;6.60;;
2023;SDS011;1016;48.770;9.154;2022-07-23T08:59:13;17.02;;;6.28;;
2023;SDS011;1016;48.770;9.154;2022-07-23T09:01:39;17.07;;;5.97;;
2023;SDS011;1016;48.770;9.154;2022-07-23T09:04:04;16.88;;;6.05;;
2023;SDS011;1016;48.770;9.154;2022-07-23T09:06:30;16.60;;;6.13;;
2023;SDS011;1016;48.770;9.154;2022-07-23T09:08:55;16.50;;;6.10;;
2023;SDS011;1016;48.770;9.154;2022-07-23T09:11:21;17.38;;;6.07;;
2023;SDS011;1016;48.770;9.154;2022-07-23T09:13:47;18.33;;;6.60;;
2023;SDS011;1016;48.770;9.154;2022-07-23T09:16:27;18.10;;;5.90;;
2023;SDS011;1016;48.770;9.154;2022-07-23T09:18:58;17.35;;;6.30;;
2023;SDS011;1016;48.770;9.154;2022-07-23T09:21:26;17.27;;;6.40;;
2023;SDS011;1016;48.770;9.154;2022-07-23T09:23:55;17.38;;;5.80;;
2023;SDS011;1016;48.770;9.154;2022-07-23T09:26:24;17.20;;;5.60;;
2023;SDS011;1016;48.770;9.154;2022-07-23T09:28:52;16.80;;;5.90;;
2023;SDS011;1016;48.770;9.154;2022-07-23T09:31:20;16.50;;;5.50;;
2023;SDS011;1016;48.770;9.154;2022-07-23T09:33:47;17.48;;;6.00;;
2023;SDS011;1016;48.770;9.154;2022-07-23T09:36:13;16.30;;;5.70;;
2023;SDS011;1016;48.770;9.154;2022-07-23T09:38:48;16.60;;;5.90;;
2023;SDS011;1016;48.770;9.154;2022-07-23T09:41:15;17.73;;;5.80;;
2023;SDS011;1016;48.770;9.154;2022-07-23T09:43:41;17.95;;;6.30;;
2023;SDS011;1016;48.770;9.154;2022-07-23T09:46:16;18.20;;;5.82;;
2023;SDS011;1016;48.770;9.154;2022-07-23T09:48:44;17.10;;;6.50;;
2023;SDS011;1016;48.770;9.154;2022-07-23T09:51:10;18.20;;;7.38;;
2023;SDS011;1016;48.770;9.154;2022-07-23T09:53:35;16.60;;;6.33;;
2023;SDS011;1016;48.770;9.154;2022-07-23T09:56:01;17.30;;;6.10;;
2023;SDS011;1016;48.770;9.154;2022-07-23T09:58:27;17.15;;;5.90;;
2023;SDS011;1016;48.770;9.154;2022-07-23T10:00:55;17.58;;;5.85;;
2023;SDS011;1016;48.770;9.154;2022-07-23T10:03:22;17.50;;;6.30;;
2023;SDS011;1016;48.770;9.154;2022-07-23T10:05:48;16.47;;;5.60;;
2023;SDS011;1016;48.770;9.154;2022-07-23T10:08:17;17.33;;;6.40;;
2023;SDS011;1016;48.770;9.154;2022-07-23T10:10:45;17.20;;;6.05;;
2023;SDS011;1016;48.770;9.154;2022-07-23T10:13:12;16.40;;;6.00;;
2023;SDS011;1016;48.770;9.154;2022-07-23T10:16:05;16.83;;;6.43;;
2023;SDS011;1016;48.770;9.154;2022-07-23T10:18:30;17.00;;;6.00;;
2023;SDS011;1016;48.770;9.154;2022-07-23T10:20:56;18.27;;;6.20;;
2023;SDS011;1016;48.770;9.154;2022-07-23T10:25:57;16.17;;;5.60;;
2023;SDS011;1016;48.770;9.154;2022-07-23T10:31:31;18.50;;;7.40;;
2023;SDS011;1016;48.770;9.154;2022-07-23T10:37:00;16.60;;;5.53;;
2023;SDS011;1016;48.770;9.154;2022-07-23T10:39:42;17.25;;;5.60;;
2023;SDS011;1016;48.770;9.154;2022-07-23T10:42:09;16.55;;;5.20;;
2023;SDS011;1016;48.770;9.154;2022-07-23T10:44:40;16.92;;;5.57;;
2023;SDS011;1016;48.770;9.154;2022-07-23T10:47:07;16.08;;;5.40;;
2023;SDS011;1016;48.770;9.154;2022-07-23T10:49:47;15.43;;;5.18;;
2023;SDS011;1016;48.770;9.154;2022-07-23T10:54:39;18.17;;;5.80;;
2023;SDS011;1016;48.770;9.154;2022-07-23T10:57:11;18.10;;;6.10;;
2023;SDS011;1016;48.770;9.154;2022-07-23T11:02:25;17.70;;;5.80;;
2023;SDS011;1016;48.770;9.154;2022-07-23T11:04:52;17.92;;;5.80;;
2023;SDS011;1016;48.770;9.154;2022-07-23T11:07:18;18.25;;;6.30;;
2023;SDS011;1016;48.770;9.154;2022-07-23T11:09:44;18.60;;;5.90;;
2023;SDS011;1016;48.770;9.154;2022-07-23T11:20:19;18.20;;;5.87;;
2023;SDS011;1016;48.770;9.154;2022-07-23T11:22:48;18.70;;;6.40;;
2023;SDS011;1016;48.770;9.154;2022-07-23T11:25:28;16.70;;;5.80;;
2023;SDS011;1016;48.770;9.154;2022-07-23T11:28:06;17.88;;;6.35;;
2023;SDS011;1016;48.770;9.154;2022-07-23T11:30:42;16.93;;;5.90;;
2023;SDS011;1016;48.770;9.154;2022-07-23T11:35:36;16.30;;;6.00;;
2023;SDS011;1016;48.770;9.154;2022-07-23T11:38:17;25.05;;;6.43;;
2023;SDS011;1016;48.770;9.154;2022-07-23T11:40:50;18.40;;;6.10;;
2023;SDS011;1016;48.770;9.154;2022-07-23T11:43:17;18.40;;;6.43;;
2023;SDS011;1016;48.770;9.154;2022-07-23T11:45:45;25.17;;;6.60;;
2023;SDS011;1016;48.770;9.154;2022-07-23T11:48:17;17.70;;;6.00;;
2023;SDS011;1016;48.770;9.154;2022-07-23T11:50:44;16.45;;;6.03;;
2023;SDS011;1016;48.770;9.154;2022-07-23T11:53:10;20.40;;;6.60;;
2023;SDS011;1016;48.770;9.154;2022-07-23T11:55:36;20.07;;;6.50;;
2023;SDS011;1016;48.770;9.154;2022-07-23T11:58:01;17.17;;;6.20;;
2023;SDS011;1016;48.770;9.154;2022-07-23T12:00:28;19.27;;;6.35;;
2023;SDS011;1016;48.770;9.154;2022-07-23T12:02:56;16.75;;;6.30;;
2023;SDS011;1016;48.770;9.154;2022-07-23T12:05:27;16.58;;;6.15;;
2023;SDS011;1016;48.770;9.154;2022-07-23T12:07:54;16.80;;;6.15;;
2023;SDS011;1016;48.770;9.154;2022-07-23T12:10:22;17.25;;;6.50;;
2023;SDS011;1016;48.770;9.154;2022-07-23T12:12:49;16.15;;;6.30;;
2023;SDS011;1016;48.770;9.154;2022-07-23T12:15:18;17.50;;;6.80;;
2023;SDS011;1016;48.770;9.154;2022-07-23T12:17:47;17.08;;;6.30;;
2023;SDS011;1016;48.770;9.154;2022-07-23T12:20:35;17.00;;;6.50;;
2023;SDS011;1016;48.770;9.154;2022-07-23T12:23:02;17.05;;;6.35;;
2023;SDS011;1016;48.770;9.154;2022-07-23T12:25:30;17.38;;;6.40;;
2023;SDS011;1016;48.770;9.154;2022-07-23T12:28:10;16.98;;;6.15;;
2023;SDS011;1016;48.770;9.154;2022-07-23T12:30:44;17.08;;;6.70;;
2023;SDS011;1016;48.770;9.154;2022-07-23T12:33:21;17.80;;;6.60;;
2023;SDS011;1016;48.770;9.154;2022-07-23T12:35:52;19.00;;;8.10;;
2023;SDS011;1016;48.770;9.154;2022-07-23T12:38:21;16.85;;;6.43;;
2023;SDS011;1016;48.770;9.154;2022-07-23T12:40:49;18.33;;;6.43;;
2023;SDS011;1016;48.770;9.154;2022-07-23T12:43:20;18.10;;;6.57;;
2023;SDS011;1016;48.770;9.154;2022-07-23T12:48:34;16.60;;;6.30;;
2023;SDS011;1016;48.770;9.154;2022-07-23T12:53:37;17.90;;;6.23;;
2023;SDS011;1016;48.770;9.154;2022-07-23T12:56:10;17.40;;;6.50;;
2023;SDS011;1016;48.770;9.154;2022-07-23T12:58:41;17.80;;;6.50;;
2023;SDS011;1016;48.770;9.154;2022-07-23T13:01:07;17.00;;;6.60;;
2023;SDS011;1016;48.770;9.154;2022-07-23T13:03:40;17.23;;;6.40;;
2023;SDS011;1016;48.770;9.154;2022-07-23T13:06:10;17.00;;;6.78;;
2023;SDS011;1016;48.770;9.154;2022-07-23T13:08:37;17.43;;;6.90;;
2023;SDS011;1016;48.770;9.154;2022-07-23T13:11:05;17.90;;;6.40;;
2023;SDS011;1016;48.770;9.154;2022-07-23T13:13:33;18.90;;;6.80;;
2023;SDS011;1016;48.770;9.154;2022-07-23T13:15:59;17.60;;;6.45;;
2023;SDS011;1016;48.770;9.154;2022-07-23T13:18:26;16.20;;;6.30;;
2023;SDS011;1016;48.770;9.154;2022-07-23T13:20:53;17.73;;;6.47;;
2023;SDS011;1016;48.770;9.154;2022-07-23T13:23:19;17.00;;;6.30;;
2023;SDS011;1016;48.770;9.154;2022-07-23T13:25:46;16.92;;;6.40;;
2023;SDS011;1016;48.770;9.154;2022-07-23T13:28:12;17.00;;;6.20;;
2023;SDS011;1016;48.770;9.154;2022-07-23T13:30:39;17.13;;;6.43;;
2023;SDS011;1016;48.770;9.154;2022-07-23T13:33:05;17.80;;;6.50;;
2023;SDS011;1016;48.770;9.154;2022-07-23T13:35:31;17.77;;;6.53;;
2023;SDS011;1016;48.770;9.154;2022-07-23T13:37:58;17.17;;;6.10;;
2023;SDS011;1016;48.770;9.154;2022-07-23T13:40:24;16.90;;;6.10;;
2023;SDS011;1016;48.770;9.154;2022-07-23T13:42:49;17.33;;;6.40;;
2023;SDS011;1016;48.770;9.154;2022-07-23T13:45:15;17.10;;;6.07;;
2023;SDS011;1016;48.770;9.154;2022-07-23T13:47:41;17.37;;;6.50;;
2023;SDS011;1016;48.770;9.154;2022-07-23T13:50:06;16.47;;;6.00;;
2023;SDS011;1016;48.770;9.154;2022-07-23T13:52:32;17.00;;;6.10;;
2023;SDS011;1016;48.770;9.154;2022-07-23T13:54:59;16.50;;;6.20;;
2023;SDS011;1016;48.770;9.154;2022-07-23T13:57:29;16.27;;;5.80;;
2023;SDS011;1016;48.770;9.154;2022-07-23T13:59:55;18.15;;;5.90;;
2023;SDS011;1016;48.770;9.154;2022-07-23T14:02:21;16.13;;;5.93;;
2023;SDS011;1016;48.770;9.154;2022-07-23T14:04:46;16.42;;;6.10;;
2023;SDS011;1016;48.770;9.154;2022-07-23T14:07:12;16.65;;;5.85;;
2023;SDS011;1016;48.770;9.154;2022-07-23T14:09:38;16.03;;;6.17;;
2023;SDS011;1016;48.770;9.154;2022-07-23T14:12:04;16.70;;;6.20;;
2023;SDS011;1016;48.770;9.154;2022-07-23T14:14:30;16.20;;;6.03;;
2023;SDS011;1016;48.770;9.154;2022-07-23T14:16:55;16.83;;;5.83;;
2023;SDS011;1016;48.770;9.154;2022-07-23T14:19:21;16.30;;;6.10;;
2023;SDS011;1016;48.770;9.154;2022-07-23T14:21:47;17.90;;;6.10;;
2023;SDS011;1016;48.770;9.154;2022-07-23T14:24:13;16.60;;;6.10;;
2023;SDS011;1016;48.770;9.154;2022-07-23T14:26:40;16.65;;;6.30;;
2023;SDS011;1016;48.770;9.154;2022-07-23T14:29:06;17.23;;;6.30;;
2023;SDS011;1016;48.770;9.154;2022-07-23T14:31:31;16.92;;;6.00;;
2023;SDS011;1016;48.770;9.154;2022-07-23T14:33:57;16.95;;;6.38;;
2023;SDS011;1016;48.770;9.154;2022-07-23T14:36:23;18.47;;;6.33;;
2023;SDS011;1016;48.770;9.154;2022-07-23T14:38:50;15.00;;;5.83;;
2023;SDS011;1016;48.770;9.154;2022-07-23T14:41:16;17.75;;;6.30;;
2023;SDS011;1016;48.770;9.154;2022-07-23T14:43:41;18.42;;;6.65;;
2023;SDS011;1016;48.770;9.154;2022-07-23T14:46:07;17.48;;;6.70;;
2023;SDS011;1016;48.770;9.154;2022-07-23T14:48:32;19.47;;;6.80;;
2023;SDS011;1016;48.770;9.154;2022-07-23T14:50:58;18.10;;;6.80;;
2023;SDS011;1016;48.770;9.154;2022-07-23T14:53:24;18.30;;;6.40;;
2023;SDS011;1016;48.770;9.154;2022-07-23T14:55:49;17.23;;;6.15;;
2023;SDS011;1016;48.770;9.154;2022-07-23T14:58:15;16.30;;;6.00;;
2023;SDS011;1016;48.770;9.154;2022-07-23T15:00:40;16.60;;;6.10;;
2023;SDS011;1016;48.770;9.154;2022-07-23T15:03:06;17.38;;;6.50;;
2023;SDS011;1016;48.770;9.154;2022-07-23T15:05:31;16.70;;;6.30;;
2023;SDS011;1016;48.770;9.154;2022-07-23T15:07:57;16.80;;;6.53;;
2023;SDS011;1016;48.770;9.154;2022-07-23T15:10:23;18.48;;;6.50;;
2023;SDS011;1016;48.770;9.154;2022-07-23T15:12:49;17.25;;;6.55;;
2023;SDS011;1016;48.770;9.154;2022-07-23T15:15:14;17.40;;;6.30;;
2023;SDS011;1016;48.770;9.154;2022-07-23T15:17:40;16.70;;;6.60;;
2023;SDS011;1016;48.770;9.154;2022-07-23T15:20:05;18.50;;;6.60;;
2023;SDS011;1016;48.770;9.154;2022-07-23T15:22:32;17.10;;;6.82;;
2023;SDS011;1016;48.770;9.154;2022-07-23T15:24:57;17.52;;;6.80;;
2023;SDS011;1016;48.770;9.154;2022-07-23T15:27:23;16.90;;;7.05;;